Waukesha, Wisconsin
Current Conditions -  °F | °C
As of 12:45 PM on Saturday 20 Dec 2014 (Local Time) from KUES Reporting Station
Light Snow Light Snow  
Wind Chill: 28°   Ceiling: 3000
Heat Index: 28°   Visibility: 10mi
Dew Point: 21°   Wind: 0mph
Humidity: 74%   Direction: NA
Pressure: 30.24"   Gusts: NA
Location:  43.01°N, 88.23°W
Report Text: KUES 201845Z 00000KT 10SM -SN OVC030 M02/M06 A3024
Loading
Personal Weather Stations






























Interactive Weather Map New forecast layout! Learn more

10-Day Weather Forecast

Advertisements
Track Severe Weather on mobile